タヒチ島 の空港の天気 - METARとTAF

タヒチ・ファアア国際空港 ( NTAA / PPT ) - フランス領ポリネシア タヒチ島
飛行場実況気象(Metar)
観測時間12/15 02:30 TAHT (12/15 12:30 UTC)
風向・風速東北東 3m/s
視程10km以上
天気現象
少しの雲 雲底高度 490m
全天の4割程度の雲 雲底高度 2010m
気温26℃
湿度84%
気圧1010hPa
METARNTAA 151230Z 07006KT 9999 FEW016TCU SCT066 26/23 Q1010 RERA TEMPO 04015KT 2000 SHRA FEW015CB SCT018 BKN050
過去の天気等 Google飛行場航空写真 Wunderground天気予報

過去48時間のMETAR

飛行場予報(TAF)
発表時間: 12/15 01:00 TAHT (12/15 11:00 UTC)
予報対象時間: 15日2時 TAHT ~ 16日8時 TAHT
風向・風速不定 3m/s
視程10km以上
少しの塔状積雲 雲底高度 460m
全天の4割程度の雲 雲底高度 2010m
全天の8割程度の雲 雲底高度 3050m
15日2時 TAHT ~ 15日8時 TAHT に 確率 40% で一時的に
風向・風速北東 8m/s
視程2000m
天気現象しゅう雨
少しの積乱雲 雲底高度 460m
全天の4割程度の雲 雲底高度 550m
全天の8割程度の雲 雲底高度 1220m
15日8時 TAHT ~ 15日10時 TAHT に徐々に
風向・風速北東 8m/s
15日16時 TAHT ~ 15日18時 TAHT に徐々に
風向・風速不定 1m/s
TAF NTAA 151100Z 1512/1618 VRB05KT 9999 FEW015TCU SCT066 BKN100
PROB40 TEMPO 1512/1518 04015KT 2000 SHRA FEW015CB SCT018 BKN040
BECMG 1518/1520 05015KT
BECMG 1602/1604 VRB02KT